DLH160 EDDM-EDDH
Flight info
| Callsign | DLH160 |
|---|---|
| Flight time | 1h 5m |
| Altitude | 36000 |
| Route | INPUD3Q INPUD Y102 UPALA M726 NARUS DCT ABGUS DCT DIRBO/N0365F230 T902 RARUP RARUP3D |
| Aircraft | A333/H-SDE3GHIJ2J3J5M1RVWXYZ/LB2D1 |
Departure
| Time | 2026-05-01 12:02 |
|---|---|
| Airport | Munich Airport (EDDM) |
Arrival
| Time | 2026-05-01 13:07 |
|---|---|
| Airport | Hamburg Helmut Schmidt Airport (EDDH) |
| Time | Latitude | Longitude | Altitude | Speed | Heading |
|---|---|---|---|---|---|
| 2026-05-01 11:12 | 48.35488 | 11.79297 | 1463 ft | 0 kts | 263° |
| 2026-05-01 11:38 | 48.35488 | 11.79300 | 1471 ft | 3 kts | 263° |
| 2026-05-01 11:38 | 48.35490 | 11.79328 | 1459 ft | 3 kts | 263° |
| 2026-05-01 11:39 | 48.35493 | 11.79356 | 1459 ft | 3 kts | 263° |
| 2026-05-01 11:39 | 48.35495 | 11.79384 | 1459 ft | 2 kts | 263° |
| 2026-05-01 11:39 | 48.35497 | 11.79412 | 1459 ft | 3 kts | 281° |
| 2026-05-01 11:39 | 48.35488 | 11.79439 | 1459 ft | 3 kts | 328° |
| 2026-05-01 11:40 | 48.35477 | 11.79447 | 1459 ft | 0 kts | 354° |
| 2026-05-01 11:46 | 48.35483 | 11.79446 | 1459 ft | 4 kts | 354° |
| 2026-05-01 11:46 | 48.35526 | 11.79440 | 1466 ft | 8 kts | 354° |
| 2026-05-01 11:47 | 48.35586 | 11.79431 | 1463 ft | 9 kts | 354° |
| 2026-05-01 11:47 | 48.35658 | 11.79420 | 1466 ft | 11 kts | 354° |
| 2026-05-01 11:47 | 48.35743 | 11.79406 | 1467 ft | 13 kts | 353° |
| 2026-05-01 11:47 | 48.35833 | 11.79391 | 1460 ft | 13 kts | 353° |
| 2026-05-01 11:48 | 48.35915 | 11.79355 | 1463 ft | 13 kts | 336° |
| 2026-05-01 11:48 | 48.35997 | 11.79334 | 1465 ft | 7 kts | 355° |
| 2026-05-01 11:48 | 48.36003 | 11.79333 | 1467 ft | 0 kts | 355° |
| 2026-05-01 11:52 | 48.36020 | 11.79331 | 1469 ft | 6 kts | 355° |
| 2026-05-01 11:52 | 48.36067 | 11.79317 | 1466 ft | 8 kts | 331° |
| 2026-05-01 11:52 | 48.36084 | 11.79239 | 1466 ft | 10 kts | 268° |
| 2026-05-01 11:53 | 48.36077 | 11.79119 | 1461 ft | 13 kts | 263° |
| 2026-05-01 11:53 | 48.36065 | 11.78975 | 1464 ft | 15 kts | 263° |
| 2026-05-01 11:53 | 48.36048 | 11.78750 | 1462 ft | 18 kts | 263° |
| 2026-05-01 11:53 | 48.36033 | 11.78556 | 1461 ft | 20 kts | 263° |
| 2026-05-01 11:54 | 48.36022 | 11.78412 | 1463 ft | 21 kts | 263° |
| 2026-05-01 11:54 | 48.36005 | 11.78187 | 1461 ft | 23 kts | 263° |
| 2026-05-01 11:54 | 48.35986 | 11.77939 | 1464 ft | 25 kts | 263° |
| 2026-05-01 11:54 | 48.35966 | 11.77676 | 1470 ft | 26 kts | 263° |
| 2026-05-01 11:55 | 48.35944 | 11.77397 | 1464 ft | 28 kts | 263° |
| 2026-05-01 11:55 | 48.35924 | 11.77134 | 1464 ft | 21 kts | 264° |
| 2026-05-01 11:55 | 48.35914 | 11.76937 | 1470 ft | 17 kts | 273° |
| 2026-05-01 11:55 | 48.35908 | 11.76763 | 1463 ft | 17 kts | 286° |
| 2026-05-01 11:56 | 48.35942 | 11.76713 | 1462 ft | 2 kts | 20° |
| 2026-05-01 11:56 | 48.35966 | 11.76750 | 1465 ft | 6 kts | 50° |
| 2026-05-01 11:56 | 48.36002 | 11.76804 | 1459 ft | 8 kts | 31° |
| 2026-05-01 11:56 | 48.36034 | 11.76811 | 1463 ft | 0 kts | 359° |
| 2026-05-01 11:57 | 48.36061 | 11.76809 | 1464 ft | 7 kts | 355° |
| 2026-05-01 11:57 | 48.36110 | 11.76802 | 1465 ft | 0 kts | 354° |
| 2026-05-01 11:59 | 48.36147 | 11.76796 | 1462 ft | 10 kts | 355° |
| 2026-05-01 11:59 | 48.36235 | 11.76789 | 1464 ft | 11 kts | 357° |
| 2026-05-01 12:00 | 48.36286 | 11.76823 | 1467 ft | 0 kts | 83° |
| 2026-05-01 12:01 | 48.36287 | 11.76831 | 1467 ft | 8 kts | 83° |
| 2026-05-01 12:01 | 48.36319 | 11.77253 | 1468 ft | 76 kts | 84° |
| 2026-05-01 12:01 | 48.36402 | 11.78384 | 1467 ft | 140 kts | 84° |
| 2026-05-01 12:01 | 48.36521 | 11.79996 | 2023 ft | 157 kts | 84° |
| 2026-05-01 12:02 | 48.36622 | 11.81588 | 3147 ft | 154 kts | 85° |
| 2026-05-01 12:02 | 48.36687 | 11.83267 | 3799 ft | 176 kts | 86° |
| 2026-05-01 12:02 | 48.36951 | 11.85255 | 4205 ft | 214 kts | 70° |
| 2026-05-01 12:02 | 48.37903 | 11.87167 | 4764 ft | 247 kts | 40° |
| 2026-05-01 12:03 | 48.39571 | 11.88079 | 5220 ft | 269 kts | 5° |
| 2026-05-01 12:03 | 48.41401 | 11.87407 | 5606 ft | 280 kts | 330° |
| 2026-05-01 12:03 | 48.42832 | 11.85398 | 5987 ft | 284 kts | 310° |
| 2026-05-01 12:03 | 48.44065 | 11.83055 | 6394 ft | 287 kts | 308° |
| 2026-05-01 12:04 | 48.45298 | 11.80691 | 7127 ft | 288 kts | 309° |
| 2026-05-01 12:04 | 48.46559 | 11.78343 | 8162 ft | 289 kts | 311° |
| 2026-05-01 12:04 | 48.47845 | 11.76001 | 9229 ft | 291 kts | 311° |
| 2026-05-01 12:04 | 48.49153 | 11.73659 | 10247 ft | 294 kts | 312° |
| 2026-05-01 12:05 | 48.50485 | 11.71292 | 11089 ft | 300 kts | 313° |
| 2026-05-01 12:05 | 48.53191 | 11.66505 | 12916 ft | 304 kts | 314° |
| 2026-05-01 12:05 | 48.54570 | 11.64071 | 13819 ft | 306 kts | 314° |
| 2026-05-01 12:06 | 48.55968 | 11.61632 | 14657 ft | 309 kts | 316° |
| 2026-05-01 12:06 | 48.57619 | 11.59565 | 15361 ft | 310 kts | 333° |
| 2026-05-01 12:06 | 48.59612 | 11.58137 | 15729 ft | 326 kts | 341° |
| 2026-05-01 12:06 | 48.61791 | 11.56881 | 16056 ft | 345 kts | 342° |
| 2026-05-01 12:07 | 48.64087 | 11.55593 | 16498 ft | 358 kts | 342° |
| 2026-05-01 12:07 | 48.66415 | 11.54271 | 17137 ft | 365 kts | 342° |
| 2026-05-01 12:07 | 48.68807 | 11.52900 | 17865 ft | 370 kts | 342° |
| 2026-05-01 12:07 | 48.71229 | 11.51503 | 18597 ft | 375 kts | 342° |
| 2026-05-01 12:08 | 48.73677 | 11.50086 | 19238 ft | 379 kts | 342° |
| 2026-05-01 12:08 | 48.76147 | 11.48651 | 19896 ft | 382 kts | 342° |
| 2026-05-01 12:08 | 48.78637 | 11.47202 | 20573 ft | 384 kts | 342° |
| 2026-05-01 12:08 | 48.81139 | 11.45745 | 21237 ft | 386 kts | 342° |
| 2026-05-01 12:09 | 48.83655 | 11.44279 | 21903 ft | 389 kts | 342° |
| 2026-05-01 12:09 | 48.86187 | 11.42804 | 22500 ft | 392 kts | 341° |
| 2026-05-01 12:09 | 48.88743 | 11.41314 | 23108 ft | 395 kts | 341° |
| 2026-05-01 12:09 | 48.91320 | 11.39810 | 23727 ft | 397 kts | 341° |
| 2026-05-01 12:10 | 48.93905 | 11.38300 | 24296 ft | 400 kts | 341° |
| 2026-05-01 12:10 | 48.99108 | 11.35253 | 25208 ft | 407 kts | 341° |
| 2026-05-01 12:10 | 49.01752 | 11.33701 | 25690 ft | 410 kts | 341° |
| 2026-05-01 12:11 | 49.07104 | 11.30553 | 26635 ft | 414 kts | 341° |
| 2026-05-01 12:11 | 49.09802 | 11.28965 | 27069 ft | 417 kts | 341° |
| 2026-05-01 12:11 | 49.12521 | 11.27365 | 27547 ft | 419 kts | 341° |
| 2026-05-01 12:12 | 49.15252 | 11.25756 | 28015 ft | 422 kts | 341° |
| 2026-05-01 12:12 | 49.18000 | 11.24153 | 28487 ft | 424 kts | 342° |
| 2026-05-01 12:12 | 49.20801 | 11.22931 | 28903 ft | 425 kts | 350° |
| 2026-05-01 12:12 | 49.23731 | 11.22318 | 29320 ft | 426 kts | 358° |
| 2026-05-01 12:13 | 49.26703 | 11.22119 | 29766 ft | 428 kts | 360° |
| 2026-05-01 12:13 | 49.29691 | 11.22058 | 30197 ft | 431 kts | 1° |
| 2026-05-01 12:13 | 49.32694 | 11.22075 | 30605 ft | 433 kts | 1° |
| 2026-05-01 12:13 | 49.35715 | 11.22126 | 30972 ft | 435 kts | 2° |
| 2026-05-01 12:14 | 49.38750 | 11.22183 | 31362 ft | 437 kts | 2° |
| 2026-05-01 12:14 | 49.41802 | 11.22235 | 31739 ft | 439 kts | 1° |
| 2026-05-01 12:14 | 49.44871 | 11.22278 | 31996 ft | 444 kts | 1° |
| 2026-05-01 12:14 | 49.47932 | 11.22313 | 32292 ft | 447 kts | 1° |
| 2026-05-01 12:15 | 49.51041 | 11.22341 | 32739 ft | 447 kts | 1° |
| 2026-05-01 12:15 | 49.54139 | 11.22366 | 33341 ft | 444 kts | 1° |
| 2026-05-01 12:15 | 49.57216 | 11.22382 | 33884 ft | 441 kts | 1° |
| 2026-05-01 12:15 | 49.60281 | 11.22390 | 34397 ft | 439 kts | 1° |
| 2026-05-01 12:16 | 49.63326 | 11.22394 | 34802 ft | 438 kts | 1° |
| 2026-05-01 12:16 | 49.66373 | 11.22397 | 35170 ft | 438 kts | 1° |
| 2026-05-01 12:16 | 49.69417 | 11.22402 | 35511 ft | 438 kts | 1° |
| 2026-05-01 12:16 | 49.72474 | 11.22407 | 35771 ft | 439 kts | 1° |
| 2026-05-01 12:17 | 49.75482 | 11.22413 | 36012 ft | 438 kts | 1° |
| 2026-05-01 12:17 | 49.78529 | 11.22422 | 36257 ft | 437 kts | 1° |
| 2026-05-01 12:17 | 49.81558 | 11.22437 | 36374 ft | 434 kts | 1° |
| 2026-05-01 12:17 | 49.84564 | 11.22454 | 36380 ft | 430 kts | 1° |
| 2026-05-01 12:18 | 49.90539 | 11.22494 | 36377 ft | 430 kts | 1° |
| 2026-05-01 12:18 | 49.96523 | 11.22532 | 36379 ft | 430 kts | 0° |
| 2026-05-01 12:19 | 50.02472 | 11.22567 | 36383 ft | 430 kts | 0° |
| 2026-05-01 12:19 | 50.08462 | 11.22600 | 36384 ft | 430 kts | 0° |
| 2026-05-01 12:20 | 50.14453 | 11.22635 | 36381 ft | 431 kts | 0° |
| 2026-05-01 12:20 | 50.20452 | 11.22671 | 36382 ft | 431 kts | 0° |
| 2026-05-01 12:21 | 50.26419 | 11.22706 | 36383 ft | 431 kts | 0° |
| 2026-05-01 12:21 | 50.32423 | 11.22742 | 36384 ft | 431 kts | 0° |
| 2026-05-01 12:22 | 50.38426 | 11.22368 | 36385 ft | 432 kts | 356° |
| 2026-05-01 12:22 | 50.44422 | 11.21539 | 36378 ft | 433 kts | 355° |
| 2026-05-01 12:23 | 50.50381 | 11.20629 | 36390 ft | 433 kts | 355° |
| 2026-05-01 12:23 | 50.56378 | 11.19703 | 36386 ft | 433 kts | 354° |
| 2026-05-01 12:24 | 50.62387 | 11.18783 | 36392 ft | 434 kts | 355° |
| 2026-05-01 12:24 | 50.68400 | 11.17911 | 36392 ft | 434 kts | 356° |
| 2026-05-01 12:25 | 50.77402 | 11.16964 | 36394 ft | 434 kts | 356° |
| 2026-05-01 12:26 | 50.83432 | 11.16366 | 36398 ft | 435 kts | 356° |
| 2026-05-01 12:26 | 50.92488 | 11.15428 | 36400 ft | 435 kts | 356° |
| 2026-05-01 12:27 | 51.01551 | 11.14469 | 36399 ft | 435 kts | 356° |
| 2026-05-01 12:28 | 51.10573 | 11.13514 | 36397 ft | 436 kts | 356° |
| 2026-05-01 12:29 | 51.19646 | 11.12549 | 36397 ft | 436 kts | 356° |
| 2026-05-01 12:29 | 51.28725 | 11.11580 | 36395 ft | 436 kts | 356° |
| 2026-05-01 12:30 | 51.37769 | 11.10612 | 36396 ft | 437 kts | 356° |
| 2026-05-01 12:31 | 51.43830 | 11.09961 | 36395 ft | 436 kts | 356° |
| 2026-05-01 12:31 | 51.49893 | 11.09312 | 36397 ft | 437 kts | 356° |
| 2026-05-01 12:32 | 51.55958 | 11.08656 | 36398 ft | 438 kts | 356° |
| 2026-05-01 12:32 | 51.65035 | 11.07668 | 36397 ft | 438 kts | 356° |
| 2026-05-01 12:33 | 51.71112 | 11.07004 | 36390 ft | 437 kts | 356° |
| 2026-05-01 12:33 | 51.77190 | 11.06342 | 36393 ft | 438 kts | 356° |
| 2026-05-01 12:34 | 51.83235 | 11.05682 | 36391 ft | 439 kts | 356° |
| 2026-05-01 12:34 | 51.89316 | 11.04860 | 36389 ft | 438 kts | 354° |
| 2026-05-01 12:35 | 51.95369 | 11.03585 | 36390 ft | 439 kts | 352° |
| 2026-05-01 12:35 | 52.01413 | 11.02215 | 36387 ft | 438 kts | 352° |
| 2026-05-01 12:36 | 52.07468 | 11.00879 | 36391 ft | 439 kts | 353° |
| 2026-05-01 12:36 | 52.13485 | 10.99580 | 36393 ft | 439 kts | 353° |
| 2026-05-01 12:37 | 52.19546 | 10.98279 | 36391 ft | 439 kts | 353° |
| 2026-05-01 12:37 | 52.25607 | 10.96974 | 36391 ft | 439 kts | 353° |
| 2026-05-01 12:38 | 52.31666 | 10.95665 | 36393 ft | 440 kts | 353° |
| 2026-05-01 12:38 | 52.37751 | 10.94346 | 36394 ft | 442 kts | 352° |
| 2026-05-01 12:39 | 52.43826 | 10.93025 | 36392 ft | 444 kts | 352° |
| 2026-05-01 12:39 | 52.49952 | 10.91689 | 36221 ft | 443 kts | 352° |
| 2026-05-01 12:40 | 52.53009 | 10.91020 | 35547 ft | 445 kts | 353° |
| 2026-05-01 12:40 | 52.56083 | 10.90346 | 34869 ft | 447 kts | 353° |
| 2026-05-01 12:40 | 52.59178 | 10.89667 | 34159 ft | 450 kts | 353° |
| 2026-05-01 12:40 | 52.62286 | 10.88984 | 33399 ft | 451 kts | 353° |
| 2026-05-01 12:41 | 52.65399 | 10.88299 | 32671 ft | 452 kts | 353° |
| 2026-05-01 12:41 | 52.68519 | 10.87611 | 31943 ft | 453 kts | 353° |
| 2026-05-01 12:41 | 52.71599 | 10.86932 | 31311 ft | 452 kts | 353° |
| 2026-05-01 12:41 | 52.74701 | 10.86245 | 30757 ft | 449 kts | 353° |
| 2026-05-01 12:42 | 52.77784 | 10.85562 | 30177 ft | 445 kts | 353° |
| 2026-05-01 12:42 | 52.80852 | 10.84882 | 29549 ft | 442 kts | 353° |
| 2026-05-01 12:42 | 52.83888 | 10.84226 | 28938 ft | 439 kts | 354° |
| 2026-05-01 12:42 | 52.86923 | 10.83610 | 28069 ft | 441 kts | 354° |
| 2026-05-01 12:43 | 52.89973 | 10.83000 | 27286 ft | 442 kts | 354° |
| 2026-05-01 12:43 | 52.93023 | 10.82386 | 26639 ft | 440 kts | 354° |
| 2026-05-01 12:43 | 52.96050 | 10.81773 | 26034 ft | 437 kts | 354° |
| 2026-05-01 12:43 | 52.99043 | 10.81163 | 25263 ft | 430 kts | 354° |
| 2026-05-01 12:44 | 53.01968 | 10.80567 | 24519 ft | 428 kts | 354° |
| 2026-05-01 12:44 | 53.04915 | 10.79965 | 23825 ft | 424 kts | 354° |
| 2026-05-01 12:44 | 53.10704 | 10.78780 | 22067 ft | 416 kts | 354° |
| 2026-05-01 12:45 | 53.16364 | 10.77473 | 20693 ft | 407 kts | 347° |
| 2026-05-01 12:45 | 53.19042 | 10.75964 | 20094 ft | 407 kts | 335° |
| 2026-05-01 12:45 | 53.21514 | 10.73665 | 19501 ft | 408 kts | 328° |
| 2026-05-01 12:46 | 53.23892 | 10.71110 | 18968 ft | 406 kts | 327° |
| 2026-05-01 12:46 | 53.26231 | 10.68507 | 18420 ft | 402 kts | 326° |
| 2026-05-01 12:46 | 53.28506 | 10.65950 | 17834 ft | 397 kts | 326° |
| 2026-05-01 12:46 | 53.30770 | 10.63393 | 17261 ft | 390 kts | 326° |
| 2026-05-01 12:47 | 53.32998 | 10.60871 | 16713 ft | 384 kts | 326° |
| 2026-05-01 12:47 | 53.35193 | 10.58381 | 16140 ft | 380 kts | 326° |
| 2026-05-01 12:47 | 53.37374 | 10.55901 | 15615 ft | 379 kts | 326° |
| 2026-05-01 12:47 | 53.39549 | 10.53428 | 15076 ft | 377 kts | 326° |
| 2026-05-01 12:48 | 53.41712 | 10.50963 | 14548 ft | 375 kts | 326° |
| 2026-05-01 12:48 | 53.43871 | 10.48500 | 14011 ft | 374 kts | 325° |
| 2026-05-01 12:48 | 53.46016 | 10.46049 | 13432 ft | 372 kts | 325° |
| 2026-05-01 12:48 | 53.48121 | 10.43641 | 12875 ft | 370 kts | 325° |
| 2026-05-01 12:49 | 53.50238 | 10.41218 | 12319 ft | 367 kts | 326° |
| 2026-05-01 12:49 | 53.52334 | 10.38818 | 11798 ft | 362 kts | 325° |
| 2026-05-01 12:49 | 53.54392 | 10.36453 | 11306 ft | 353 kts | 325° |
| 2026-05-01 12:49 | 53.56377 | 10.34173 | 10825 ft | 337 kts | 325° |
| 2026-05-01 12:50 | 53.58264 | 10.32003 | 10335 ft | 322 kts | 325° |
| 2026-05-01 12:50 | 53.60078 | 10.29918 | 9817 ft | 312 kts | 325° |
| 2026-05-01 12:50 | 53.61868 | 10.27853 | 9313 ft | 312 kts | 325° |
| 2026-05-01 12:50 | 53.63666 | 10.25779 | 8803 ft | 314 kts | 324° |
| 2026-05-01 12:51 | 53.65438 | 10.23731 | 8304 ft | 310 kts | 324° |
| 2026-05-01 12:51 | 53.67184 | 10.21713 | 7789 ft | 300 kts | 324° |
| 2026-05-01 12:51 | 53.70589 | 10.17771 | 6836 ft | 296 kts | 324° |
| 2026-05-01 12:52 | 53.72275 | 10.15813 | 6373 ft | 291 kts | 324° |
| 2026-05-01 12:52 | 53.75582 | 10.11968 | 5828 ft | 287 kts | 324° |
| 2026-05-01 12:52 | 53.77219 | 10.10060 | 5346 ft | 284 kts | 324° |
| 2026-05-01 12:53 | 53.80447 | 10.06318 | 4335 ft | 278 kts | 324° |
| 2026-05-01 12:53 | 53.82020 | 10.04496 | 3848 ft | 270 kts | 324° |
| 2026-05-01 12:53 | 53.83524 | 10.02750 | 3557 ft | 254 kts | 324° |
| 2026-05-01 12:54 | 53.84945 | 10.01121 | 3297 ft | 242 kts | 324° |
| 2026-05-01 12:54 | 53.87471 | 9.97566 | 2991 ft | 234 kts | 298° |
| 2026-05-01 12:54 | 53.88084 | 9.95029 | 2989 ft | 233 kts | 286° |
| 2026-05-01 12:55 | 53.88973 | 9.89748 | 2991 ft | 233 kts | 283° |
| 2026-05-01 12:55 | 53.89415 | 9.87100 | 2983 ft | 234 kts | 284° |
| 2026-05-01 12:55 | 53.89841 | 9.84434 | 2993 ft | 235 kts | 279° |
| 2026-05-01 12:56 | 53.89739 | 9.81745 | 2981 ft | 228 kts | 245° |
| 2026-05-01 12:56 | 53.88692 | 9.79856 | 2987 ft | 222 kts | 203° |
| 2026-05-01 12:56 | 53.87202 | 9.79466 | 2991 ft | 215 kts | 176° |
| 2026-05-01 12:56 | 53.85797 | 9.79925 | 2991 ft | 197 kts | 160° |
| 2026-05-01 12:57 | 53.84598 | 9.80829 | 3005 ft | 188 kts | 152° |
| 2026-05-01 12:57 | 53.82332 | 9.82838 | 2993 ft | 174 kts | 151° |
| 2026-05-01 12:57 | 53.81282 | 9.83764 | 2986 ft | 168 kts | 152° |
| 2026-05-01 12:58 | 53.80239 | 9.84675 | 2984 ft | 169 kts | 152° |
| 2026-05-01 12:58 | 53.79195 | 9.85571 | 2985 ft | 167 kts | 153° |
| 2026-05-01 12:58 | 53.78160 | 9.86464 | 2886 ft | 166 kts | 152° |
| 2026-05-01 12:59 | 53.76079 | 9.88273 | 2412 ft | 168 kts | 152° |
| 2026-05-01 12:59 | 53.75038 | 9.89181 | 2179 ft | 168 kts | 152° |
| 2026-05-01 12:59 | 53.72995 | 9.90959 | 1735 ft | 163 kts | 152° |
| 2026-05-01 13:00 | 53.71122 | 9.92584 | 1315 ft | 135 kts | 151° |
| 2026-05-01 13:00 | 53.70346 | 9.93262 | 1153 ft | 119 kts | 151° |
| 2026-05-01 13:01 | 53.68893 | 9.94503 | 846 ft | 117 kts | 152° |
| 2026-05-01 13:01 | 53.68171 | 9.95159 | 755 ft | 118 kts | 152° |
| 2026-05-01 13:01 | 53.66747 | 9.96396 | 374 ft | 113 kts | 154° |
| 2026-05-01 13:02 | 53.66042 | 9.97010 | 238 ft | 116 kts | 153° |
| 2026-05-01 13:07 | 53.63556 | 9.99830 | 50 ft | 13 kts | 125° |
| 2026-05-01 13:07 | 53.63502 | 9.99957 | 48 ft | 11 kts | 126° |
| 2026-05-01 13:07 | 53.63487 | 9.99991 | 49 ft | 0 kts | 126° |
| 2026-05-01 13:09 | 53.63487 | 9.99992 | 49 ft | 0 kts | 126° |
| 2026-05-01 13:09 | 53.63473 | 10.00023 | 45 ft | 5 kts | 126° |
| 2026-05-01 13:09 | 53.63446 | 10.00088 | 45 ft | 8 kts | 126° |
| 2026-05-01 13:09 | 53.63402 | 10.00173 | 50 ft | 11 kts | 145° |
| 2026-05-01 13:10 | 53.63324 | 10.00201 | 47 ft | 13 kts | 176° |
| 2026-05-01 13:10 | 53.63229 | 10.00212 | 49 ft | 12 kts | 176° |
| 2026-05-01 13:10 | 53.63156 | 10.00221 | 49 ft | 7 kts | 176° |
| 2026-05-01 13:10 | 53.63121 | 10.00241 | 48 ft | 5 kts | 133° |
| 2026-05-01 13:11 | 53.63112 | 10.00306 | 49 ft | 7 kts | 101° |
| 2026-05-01 13:11 | 53.63105 | 10.00343 | 47 ft | 3 kts | 110° |
| 2026-05-01 13:11 | 53.63103 | 10.00377 | 49 ft | 0 kts | 87° |
| 2026-05-01 13:11 | 53.63103 | 10.00378 | 49 ft | 1 kts | 86° |
| 2026-05-01 13:12 | 53.63103 | 10.00382 | 49 ft | 0 kts | 84° |